East Andover, New Hampshire
Current Conditions -  °F | °C
As of 7:55 PM on Wednesday 22 Oct 2014 (Local Time) from KLCI Reporting Station
Overcast Overcast  
Wind Chill: 39°   Ceiling: 900
Heat Index: 46°   Visibility: 8mi
Dew Point: 43°   Wind: 18mph
Humidity: 87%   Direction: 50°NE
Pressure: 30.01"   Gusts: 25mph
Location:  43.46°N, 71.75°W
Report Text: KLCI 222355Z AUTO 05016G22KT 8SM OVC009 08/06 A3001 RMK AO1 60008 10100 20080 401000080 57007
Loading
Personal Weather Stations






























Interactive Weather Map
Tropical Storm Tracking
New forecast layout! Learn more

10-Day Weather Forecast

Advertisements
Track Severe Weather on mobile